createdAt,value
2019-03-20T00:00:37.082Z,21.80
2019-03-20T00:03:10.180Z,15.10
2019-03-20T00:05:43.317Z,18.10
2019-03-20T00:08:16.291Z,20.33
2019-03-20T00:10:49.295Z,28.07
2019-03-20T00:13:22.402Z,23.47
2019-03-20T00:15:55.474Z,20.53
2019-03-20T00:18:28.680Z,16.57
2019-03-20T00:21:02.785Z,22.87
2019-03-20T00:23:35.661Z,25.00
2019-03-20T00:26:08.532Z,24.23
2019-03-20T00:28:41.684Z,20.93
2019-03-20T00:31:14.769Z,24.70
2019-03-20T00:33:47.810Z,25.80
2019-03-20T00:36:20.905Z,21.77
2019-03-20T00:38:54.538Z,27.27
2019-03-20T00:41:27.714Z,24.77
2019-03-20T00:44:00.555Z,23.60
2019-03-20T00:46:33.409Z,33.00
2019-03-20T00:49:06.222Z,25.73
2019-03-20T00:51:39.151Z,37.80
2019-03-20T00:54:12.103Z,25.83
2019-03-20T00:56:45.038Z,34.60
2019-03-20T00:59:17.837Z,43.30
2019-03-20T01:01:50.907Z,39.03
2019-03-20T01:04:24.054Z,39.53
2019-03-20T01:06:57.023Z,30.40
2019-03-20T01:09:33.531Z,26.50
2019-03-20T01:12:06.805Z,26.73
2019-03-20T01:14:39.767Z,24.87
2019-03-20T01:17:12.620Z,27.30
2019-03-20T01:19:45.701Z,23.53
2019-03-20T01:22:18.675Z,22.83
2019-03-20T01:24:51.500Z,31.60
2019-03-20T01:27:24.432Z,24.47
2019-03-20T01:29:57.192Z,27.87
2019-03-20T01:32:30.416Z,26.23
2019-03-20T01:35:03.741Z,26.33
2019-03-20T01:37:36.522Z,23.97
2019-03-20T01:40:09.292Z,26.07
2019-03-20T01:42:42.230Z,24.77
2019-03-20T01:45:15.213Z,24.67
2019-03-20T01:47:48.447Z,26.43
2019-03-20T01:50:21.557Z,30.43
2019-03-20T01:52:54.302Z,26.00
2019-03-20T01:55:27.291Z,32.53
2019-03-20T01:58:00.151Z,20.30
2019-03-20T02:00:33.364Z,25.50
2019-03-20T02:03:06.641Z,25.30
2019-03-20T02:05:39.867Z,24.43
2019-03-20T02:08:12.770Z,31.10
2019-03-20T02:10:45.812Z,33.17
2019-03-20T02:13:18.963Z,24.83
2019-03-20T02:15:51.825Z,31.17
2019-03-20T02:18:24.815Z,33.73
2019-03-20T02:20:59.286Z,29.73
2019-03-20T02:23:32.516Z,22.57
2019-03-20T02:26:05.703Z,27.47
2019-03-20T02:28:38.651Z,26.00
2019-03-20T02:31:11.611Z,23.57
2019-03-20T02:33:44.467Z,30.47
2019-03-20T02:36:17.540Z,22.83
2019-03-20T02:38:50.473Z,25.70
2019-03-20T02:41:23.518Z,33.47
2019-03-20T02:43:56.275Z,21.63
2019-03-20T02:46:30.616Z,27.60
2019-03-20T02:49:03.534Z,31.37
2019-03-20T02:51:36.740Z,25.77
2019-03-20T02:54:09.867Z,56.80
2019-03-20T02:56:42.961Z,70.67
2019-03-20T02:59:15.922Z,46.17
2019-03-20T03:01:49.223Z,32.93
2019-03-20T03:04:22.167Z,33.47
2019-03-20T03:06:54.947Z,31.93
2019-03-20T03:09:27.814Z,33.00
2019-03-20T03:12:00.593Z,25.23
2019-03-20T03:14:33.422Z,33.27
2019-03-20T03:17:06.312Z,28.43
2019-03-20T03:19:39.441Z,54.10
2019-03-20T03:22:12.327Z,37.93
2019-03-20T03:24:45.079Z,24.97
2019-03-20T03:27:17.994Z,38.43
2019-03-20T03:29:50.853Z,40.27
2019-03-20T03:32:23.746Z,31.33
2019-03-20T03:34:56.796Z,30.90
2019-03-20T03:37:29.729Z,29.13
2019-03-20T03:40:03.223Z,29.33
2019-03-20T03:42:36.104Z,28.33
2019-03-20T03:45:11.039Z,30.83
2019-03-20T03:47:44.323Z,36.43
2019-03-20T03:50:17.494Z,28.77
2019-03-20T03:52:50.595Z,33.50
2019-03-20T03:55:23.776Z,31.03
2019-03-20T03:57:57.136Z,26.83
2019-03-20T04:00:30.179Z,28.83
2019-03-20T04:03:03.420Z,31.40
2019-03-20T04:05:36.363Z,22.47
2019-03-20T04:08:09.134Z,30.67
2019-03-20T04:10:41.939Z,26.00
2019-03-20T04:13:15.053Z,29.17
2019-03-20T04:15:48.088Z,33.43
2019-03-20T04:18:20.996Z,33.20
2019-03-20T04:20:54.022Z,34.90
2019-03-20T04:23:27.315Z,33.33
2019-03-20T04:26:00.466Z,29.53
2019-03-20T04:28:33.376Z,30.33
2019-03-20T04:31:06.217Z,28.60
2019-03-20T04:33:39.254Z,37.00
2019-03-20T04:36:12.104Z,27.40
2019-03-20T04:38:45.063Z,31.87
2019-03-20T04:41:18.176Z,32.60
2019-03-20T04:43:51.161Z,30.87
2019-03-20T04:46:24.238Z,28.13
2019-03-20T04:48:57.462Z,30.33
2019-03-20T04:51:30.660Z,25.07
2019-03-20T04:54:03.840Z,24.47
2019-03-20T04:56:36.799Z,28.00
2019-03-20T04:59:09.900Z,25.83
2019-03-20T05:01:42.986Z,26.37
2019-03-20T05:04:15.985Z,37.53
2019-03-20T05:06:58.178Z,29.47
2019-03-20T05:09:24.814Z,34.60
2019-03-20T05:11:57.697Z,32.93
2019-03-20T05:14:30.781Z,31.63
2019-03-20T05:17:03.639Z,30.20
2019-03-20T05:19:36.698Z,32.60
2019-03-20T05:22:09.499Z,29.97
2019-03-20T05:24:42.269Z,24.53
2019-03-20T05:27:15.111Z,30.53
2019-03-20T05:29:47.936Z,23.60
2019-03-20T05:32:21.281Z,26.67
2019-03-20T05:34:54.196Z,26.60
2019-03-20T05:37:27.227Z,29.10
2019-03-20T05:40:00.377Z,31.47
2019-03-20T05:42:33.390Z,31.43
2019-03-20T05:45:07.880Z,30.93
2019-03-20T05:47:40.774Z,30.43
2019-03-20T05:50:13.616Z,23.83
2019-03-20T05:52:46.557Z,22.67
2019-03-20T05:55:19.488Z,33.93
2019-03-20T05:57:52.550Z,20.93
2019-03-20T06:00:27.699Z,34.10
2019-03-20T06:03:00.755Z,26.80
2019-03-20T06:05:33.669Z,25.10
2019-03-20T06:08:06.515Z,29.40
2019-03-20T06:10:39.411Z,24.03
2019-03-20T06:13:12.306Z,29.43
2019-03-20T06:15:45.442Z,24.57
2019-03-20T06:18:18.600Z,31.50
2019-03-20T06:20:51.675Z,26.77
2019-03-20T06:23:24.422Z,27.27
2019-03-20T06:25:57.546Z,28.53
2019-03-20T06:28:30.607Z,32.03
2019-03-20T06:31:03.427Z,27.13
2019-03-20T06:33:36.911Z,29.07
2019-03-20T06:36:09.927Z,28.10
2019-03-20T06:38:45.856Z,33.07
2019-03-20T06:41:18.666Z,24.37
2019-03-20T06:43:51.590Z,31.23
2019-03-20T06:46:24.590Z,22.70
2019-03-20T06:48:57.706Z,23.00
2019-03-20T06:51:30.874Z,24.67
2019-03-20T06:54:04.146Z,24.47
2019-03-20T06:56:37.037Z,25.23
2019-03-20T07:00:07.352Z,22.80
2019-03-20T07:02:46.611Z,27.80
2019-03-20T07:06:06.518Z,29.73
2019-03-20T07:08:43.905Z,24.03
2019-03-20T07:11:17.349Z,27.33
2019-03-20T07:13:50.773Z,23.30
2019-03-20T07:16:24.256Z,26.60
2019-03-20T07:18:57.420Z,25.77
2019-03-20T07:21:30.430Z,14.97
2019-03-20T07:24:03.452Z,19.33
2019-03-20T07:26:36.275Z,12.77
2019-03-20T07:29:09.775Z,20.40
2019-03-20T07:31:42.764Z,17.60
2019-03-20T07:34:16.125Z,15.47
2019-03-20T07:36:49.155Z,14.50
2019-03-20T07:39:22.110Z,16.53
2019-03-20T07:41:55.332Z,14.23
2019-03-20T07:44:28.481Z,13.70
2019-03-20T07:47:01.260Z,16.93
2019-03-20T07:49:34.183Z,17.57
2019-03-20T07:52:07.053Z,20.03
2019-03-20T07:54:40.091Z,20.33
2019-03-20T07:57:12.985Z,15.47
2019-03-20T07:59:46.010Z,19.63
2019-03-20T08:02:19.034Z,16.73
2019-03-20T08:04:52.157Z,22.03
2019-03-20T08:07:25.167Z,15.40
2019-03-20T08:09:58.018Z,17.07
2019-03-20T08:12:31.097Z,12.53
2019-03-20T08:15:05.648Z,12.70
2019-03-20T08:17:38.694Z,19.23
2019-03-20T08:20:12.787Z,13.47
2019-03-20T08:22:45.542Z,24.70
2019-03-20T08:25:18.523Z,23.13
2019-03-20T08:27:51.776Z,20.83
2019-03-20T08:30:24.845Z,25.80
2019-03-20T08:32:57.832Z,26.20
2019-03-20T08:35:30.977Z,14.40
2019-03-20T08:38:04.074Z,26.77
2019-03-20T08:40:37.241Z,19.53
2019-03-20T08:43:10.391Z,15.87
2019-03-20T08:45:43.467Z,16.77
2019-03-20T08:48:16.559Z,16.50
2019-03-20T08:50:49.747Z,19.30
2019-03-20T08:53:22.749Z,17.03
2019-03-20T08:55:55.919Z,16.47
2019-03-20T08:58:29.019Z,13.32
2019-03-20T09:01:02.127Z,15.87
2019-03-20T09:03:35.408Z,15.10
2019-03-20T09:06:08.384Z,13.50
2019-03-20T09:08:41.442Z,14.87
2019-03-20T09:11:14.361Z,13.73
2019-03-20T09:13:47.439Z,13.23
2019-03-20T09:16:20.512Z,12.82
2019-03-20T09:18:53.508Z,14.75
2019-03-20T09:21:27.632Z,12.47
2019-03-20T09:24:00.593Z,10.60
2019-03-20T09:26:33.629Z,15.63
2019-03-20T09:29:17.990Z,13.75
2019-03-20T09:31:41.794Z,14.28
2019-03-20T09:34:14.843Z,10.40
2019-03-20T09:36:47.887Z,14.58
2019-03-20T09:39:20.817Z,15.13
2019-03-20T09:41:53.829Z,12.63
2019-03-20T09:44:27.022Z,12.88
2019-03-20T09:47:00.212Z,11.30
2019-03-20T09:49:33.375Z,15.13
2019-03-20T09:52:06.500Z,14.58
2019-03-20T09:54:39.570Z,14.30
2019-03-20T09:57:12.470Z,14.10
2019-03-20T09:59:46.001Z,14.93
2019-03-20T10:02:19.168Z,14.47
2019-03-20T10:04:52.697Z,10.25
2019-03-20T10:07:25.817Z,12.30
2019-03-20T10:09:58.628Z,12.90
2019-03-20T10:12:31.676Z,9.95
2019-03-20T10:15:07.355Z,13.00
2019-03-20T10:17:40.637Z,13.20
2019-03-20T10:20:15.900Z,13.55
2019-03-20T10:22:50.195Z,12.75
2019-03-20T10:25:23.218Z,11.78
2019-03-20T10:27:56.263Z,12.58
2019-03-20T10:30:29.607Z,14.18
2019-03-20T10:33:02.512Z,15.15
2019-03-20T10:35:35.429Z,11.33
2019-03-20T10:38:08.733Z,16.42
2019-03-20T10:40:41.893Z,11.43
2019-03-20T10:43:14.749Z,12.23
2019-03-20T10:45:47.934Z,12.85
2019-03-20T10:48:20.803Z,12.63
2019-03-20T10:50:53.735Z,14.73
2019-03-20T10:53:26.499Z,16.60
2019-03-20T10:55:59.321Z,15.65
2019-03-20T10:58:32.184Z,12.78
2019-03-20T11:01:05.024Z,13.18
2019-03-20T11:03:38.951Z,19.40
2019-03-20T11:06:11.899Z,14.10
2019-03-20T11:08:44.791Z,19.98
2019-03-20T11:11:26.486Z,17.87
2019-03-20T11:13:52.343Z,13.65
2019-03-20T11:16:25.269Z,16.50
2019-03-20T11:18:58.249Z,18.10
2019-03-20T11:21:31.550Z,19.17
2019-03-20T11:24:04.565Z,15.53
2019-03-20T11:26:37.449Z,13.08
2019-03-20T11:29:10.621Z,17.37
2019-03-20T11:31:43.491Z,14.60
2019-03-20T11:34:16.461Z,20.17
2019-03-20T11:36:49.226Z,14.60
2019-03-20T11:39:29.653Z,12.13
2019-03-20T11:41:57.190Z,16.05
2019-03-20T11:44:30.266Z,16.62
2019-03-20T11:47:03.022Z,15.08
2019-03-20T11:49:35.894Z,16.32
2019-03-20T11:52:08.901Z,13.40
2019-03-20T11:54:41.855Z,19.07
2019-03-20T11:57:15.218Z,10.65
2019-03-20T11:59:48.361Z,13.65
2019-03-20T12:02:28.015Z,16.45
2019-03-20T12:04:56.223Z,11.00
2019-03-20T12:07:29.252Z,12.30
2019-03-20T12:10:02.394Z,17.45
2019-03-20T12:12:35.359Z,23.52
2019-03-20T12:15:08.615Z,13.38
2019-03-20T12:17:41.727Z,12.05
2019-03-20T12:20:16.256Z,10.08
2019-03-20T12:22:49.595Z,11.75
2019-03-20T12:25:24.762Z,13.32
2019-03-20T12:27:57.941Z,11.03
2019-03-20T12:30:31.990Z,14.23
2019-03-20T12:33:05.372Z,13.93
2019-03-20T12:35:38.281Z,17.25
2019-03-20T12:38:14.972Z,11.30
2019-03-20T12:40:46.293Z,9.43
2019-03-20T12:43:19.301Z,10.35
2019-03-20T12:45:52.242Z,9.48
2019-03-20T12:48:25.022Z,8.88
2019-03-20T12:50:57.848Z,8.73
2019-03-20T12:53:31.638Z,7.72
2019-03-20T12:56:04.515Z,9.93
2019-03-20T12:58:37.601Z,9.57
2019-03-20T13:01:10.600Z,9.18
2019-03-20T13:03:43.432Z,8.68
2019-03-20T13:06:16.310Z,6.20
2019-03-20T13:08:49.183Z,10.93
2019-03-20T13:11:22.128Z,9.63
2019-03-20T13:13:54.902Z,8.45
2019-03-20T13:16:27.811Z,8.40
2019-03-20T13:19:00.811Z,7.62
2019-03-20T13:21:33.707Z,10.03
2019-03-20T13:24:06.613Z,6.22
2019-03-20T13:26:40.598Z,8.23
2019-03-20T13:29:13.613Z,10.65
2019-03-20T13:31:46.631Z,11.80
2019-03-20T13:34:19.597Z,11.53
2019-03-20T13:36:52.566Z,11.30
2019-03-20T13:39:25.282Z,9.30
2019-03-20T13:41:58.253Z,11.97
2019-03-20T13:44:31.187Z,13.48
2019-03-20T13:47:04.143Z,15.72
2019-03-20T13:49:37.008Z,12.47
2019-03-20T13:52:11.141Z,10.65
2019-03-20T13:54:43.936Z,12.95
2019-03-20T13:57:16.866Z,9.05
2019-03-20T13:59:49.916Z,12.70
2019-03-20T14:02:22.851Z,10.60
2019-03-20T14:04:55.931Z,13.50
2019-03-20T14:07:29.318Z,14.95
2019-03-20T14:10:03.042Z,13.05
2019-03-20T14:12:37.029Z,15.85
2019-03-20T14:15:10.721Z,12.25
2019-03-20T14:17:43.807Z,11.70
2019-03-20T14:20:18.866Z,19.37
2019-03-20T14:22:51.749Z,12.43
2019-03-20T14:25:24.624Z,17.50
2019-03-20T14:27:57.618Z,46.35
2019-03-20T14:30:30.606Z,49.35
2019-03-20T14:33:05.077Z,19.10
2019-03-20T14:35:37.923Z,17.75
2019-03-20T14:38:10.809Z,12.75
2019-03-20T14:40:43.562Z,16.77
2019-03-20T14:43:16.804Z,14.05
2019-03-20T14:45:49.970Z,12.65
2019-03-20T14:48:22.853Z,12.35
2019-03-20T14:50:55.654Z,12.30
2019-03-20T14:53:28.543Z,12.82
2019-03-20T14:56:01.633Z,14.28
2019-03-20T14:58:34.634Z,11.12
2019-03-20T15:01:07.647Z,11.05
2019-03-20T15:03:40.825Z,10.48
2019-03-20T15:06:14.152Z,15.50
2019-03-20T15:08:47.134Z,13.50
2019-03-20T15:11:20.242Z,11.33
2019-03-20T15:13:53.103Z,10.10
2019-03-20T15:16:26.112Z,12.45
2019-03-20T15:18:59.247Z,9.80
2019-03-20T15:21:32.260Z,9.18
2019-03-20T15:24:05.137Z,9.15
2019-03-20T15:26:39.254Z,11.53
2019-03-20T15:29:31.663Z,14.05
2019-03-20T15:32:05.043Z,12.88
2019-03-20T15:34:37.958Z,16.30
2019-03-20T15:37:10.823Z,10.63
2019-03-20T15:39:43.643Z,10.98
2019-03-20T15:42:16.425Z,10.60
2019-03-20T15:44:50.355Z,11.97
2019-03-20T15:47:23.203Z,11.10
2019-03-20T15:49:56.169Z,6.97
2019-03-20T15:52:29.240Z,8.03
2019-03-20T15:55:02.134Z,8.55
2019-03-20T15:57:35.013Z,6.78
2019-03-20T16:00:11.781Z,7.65
2019-03-20T16:02:45.098Z,5.17
2019-03-20T16:05:19.004Z,7.65
2019-03-20T16:07:52.055Z,4.22
2019-03-20T16:10:24.947Z,8.45
2019-03-20T16:12:57.977Z,5.90
2019-03-20T16:15:31.138Z,6.67
2019-03-20T16:18:04.176Z,6.12
2019-03-20T16:20:37.027Z,10.35
2019-03-20T16:23:09.981Z,11.93
2019-03-20T16:25:43.076Z,11.85
2019-03-20T16:28:16.274Z,6.90
2019-03-20T16:30:49.578Z,5.33
2019-03-20T16:33:22.670Z,9.45
2019-03-20T16:35:55.745Z,7.00
2019-03-20T16:38:28.810Z,8.83
2019-03-20T16:41:01.905Z,8.88
2019-03-20T16:43:35.078Z,8.83
2019-03-20T16:46:07.929Z,5.05
2019-03-20T16:48:40.916Z,12.65
2019-03-20T16:51:13.874Z,6.60
2019-03-20T16:53:46.979Z,15.13
2019-03-20T16:56:20.013Z,8.23
2019-03-20T16:58:53.313Z,7.22
2019-03-20T17:01:26.414Z,9.45
2019-03-20T17:03:59.486Z,7.78
2019-03-20T17:06:32.354Z,18.85
2019-03-20T17:09:06.273Z,10.08
2019-03-20T17:11:39.296Z,13.45
2019-03-20T17:14:12.588Z,12.15
2019-03-20T17:16:45.736Z,9.08
2019-03-20T17:19:18.924Z,11.60
2019-03-20T17:21:52.256Z,10.45
2019-03-20T17:24:25.148Z,6.30
2019-03-20T17:26:58.360Z,6.78
2019-03-20T17:29:31.349Z,10.10
2019-03-20T17:32:04.495Z,11.85
2019-03-20T17:34:37.728Z,11.57
2019-03-20T17:37:10.696Z,7.97
2019-03-20T17:39:43.714Z,9.90
2019-03-20T17:42:16.691Z,13.35
2019-03-20T17:44:49.737Z,10.50
2019-03-20T17:47:22.696Z,6.17
2019-03-20T17:49:55.505Z,8.30
2019-03-20T17:52:28.444Z,8.48
2019-03-20T17:55:01.673Z,12.88
2019-03-20T17:57:34.881Z,10.90
2019-03-20T18:00:11.086Z,10.82
2019-03-20T18:02:43.929Z,9.40
2019-03-20T18:05:17.010Z,15.50
2019-03-20T18:07:50.235Z,17.02
2019-03-20T18:10:23.139Z,15.05
2019-03-20T18:12:56.640Z,19.80
2019-03-20T18:15:29.660Z,18.82
2019-03-20T18:18:02.681Z,27.65
2019-03-20T18:20:36.394Z,19.98
2019-03-20T18:23:09.439Z,22.93
2019-03-20T18:25:42.546Z,17.70
2019-03-20T18:28:15.721Z,19.10
2019-03-20T18:30:49.262Z,16.67
2019-03-20T18:33:22.260Z,19.03
2019-03-20T18:35:55.307Z,15.67
2019-03-20T18:38:28.268Z,34.83
2019-03-20T18:41:01.182Z,20.70
2019-03-20T18:43:34.185Z,27.15
2019-03-20T18:46:07.266Z,49.30
2019-03-20T18:48:40.372Z,20.90
2019-03-20T18:51:13.280Z,19.77
2019-03-20T18:53:47.745Z,16.93
2019-03-20T18:56:20.777Z,18.60
2019-03-20T18:58:53.587Z,13.30
2019-03-20T19:01:26.733Z,13.17
2019-03-20T19:03:59.630Z,15.97
2019-03-20T19:06:32.644Z,13.97
2019-03-20T19:09:07.533Z,14.70
2019-03-20T19:11:41.180Z,18.77
2019-03-20T19:14:14.169Z,19.87
2019-03-20T19:16:47.173Z,17.67
2019-03-20T19:19:21.022Z,15.30
2019-03-20T19:21:54.135Z,11.43
2019-03-20T19:24:27.352Z,15.50
2019-03-20T19:27:00.374Z,15.43
2019-03-20T19:29:33.812Z,14.70
2019-03-20T19:32:06.950Z,18.10
2019-03-20T19:34:40.171Z,13.80
2019-03-20T19:37:13.426Z,15.13
2019-03-20T19:39:46.838Z,15.17
2019-03-20T19:42:20.329Z,20.87
2019-03-20T19:44:53.537Z,19.57
2019-03-20T19:47:26.607Z,22.67
2019-03-20T19:49:59.622Z,20.70
2019-03-20T19:52:32.592Z,24.70
2019-03-20T19:55:06.405Z,22.97
2019-03-20T19:57:40.537Z,20.57
2019-03-20T20:00:14.628Z,17.17
2019-03-20T20:02:47.638Z,17.27
2019-03-20T20:05:20.645Z,22.27
2019-03-20T20:07:54.024Z,19.90
2019-03-20T20:10:26.931Z,15.33
2019-03-20T20:13:00.197Z,20.03
2019-03-20T20:15:33.169Z,19.87
2019-03-20T20:18:06.041Z,19.83
2019-03-20T20:20:39.206Z,19.47
2019-03-20T20:23:12.232Z,22.37
2019-03-20T20:25:45.267Z,27.60
2019-03-20T20:28:18.198Z,31.63
2019-03-20T20:30:51.419Z,23.13
2019-03-20T20:33:24.358Z,19.40
2019-03-20T20:35:57.443Z,19.27
2019-03-20T20:38:30.737Z,18.60
2019-03-20T20:41:04.007Z,19.10
2019-03-20T20:43:36.785Z,19.07
2019-03-20T20:46:09.859Z,16.40
2019-03-20T20:48:43.152Z,16.50
2019-03-20T20:51:16.208Z,18.63
2019-03-20T20:53:49.263Z,14.20
2019-03-20T20:56:22.751Z,20.17
2019-03-20T20:58:55.688Z,21.23
2019-03-20T21:01:30.150Z,14.37
2019-03-20T21:04:05.462Z,18.47
2019-03-20T21:06:38.444Z,22.47
2019-03-20T21:09:11.298Z,24.07
2019-03-20T21:11:44.233Z,23.83
2019-03-20T21:14:17.357Z,17.80
2019-03-20T21:16:51.058Z,17.20
2019-03-20T21:19:35.868Z,18.67
2019-03-20T21:22:59.634Z,17.23
2019-03-20T21:25:33.297Z,19.97
2019-03-20T21:28:50.171Z,19.40
2019-03-20T21:31:55.067Z,18.27
2019-03-20T21:35:34.354Z,19.20
2019-03-20T21:38:07.584Z,18.00
2019-03-20T21:40:53.041Z,23.57
2019-03-20T21:44:06.972Z,24.23
2019-03-20T21:47:29.713Z,15.20
2019-03-20T21:50:29.299Z,20.90
2019-03-20T21:53:02.943Z,22.97
2019-03-20T21:56:12.605Z,23.30
2019-03-20T21:59:15.548Z,18.97
2019-03-20T22:02:03.198Z,26.40
2019-03-20T22:04:36.831Z,21.90
2019-03-20T22:07:10.738Z,26.70
2019-03-20T22:10:33.792Z,21.97
2019-03-20T22:13:23.581Z,23.47
2019-03-20T22:16:22.920Z,26.10
2019-03-20T22:19:28.252Z,27.00
2019-03-20T22:22:30.859Z,22.93
2019-03-20T22:25:50.697Z,25.17
2019-03-20T22:29:01.573Z,26.83
2019-03-20T22:31:36.882Z,24.07
2019-03-20T22:34:46.781Z,22.77
2019-03-20T22:37:39.339Z,20.20
2019-03-20T22:41:10.695Z,20.63
2019-03-20T22:43:57.146Z,16.13
2019-03-20T22:47:14.169Z,23.80
2019-03-20T22:50:21.506Z,23.60
2019-03-20T22:53:31.171Z,22.87
2019-03-20T22:56:30.579Z,19.00
2019-03-20T22:59:04.078Z,32.33
2019-03-20T23:01:41.935Z,26.07
2019-03-20T23:04:26.335Z,15.63
2019-03-20T23:06:59.925Z,14.60
2019-03-20T23:09:33.735Z,14.67
2019-03-20T23:12:12.064Z,18.93
2019-03-20T23:14:45.855Z,15.70
2019-03-20T23:17:19.299Z,21.37
2019-03-20T23:19:54.178Z,19.53
2019-03-20T23:22:28.087Z,20.20
2019-03-20T23:25:01.629Z,16.80
2019-03-20T23:27:35.564Z,17.83
2019-03-20T23:30:13.296Z,24.27
2019-03-20T23:32:46.811Z,23.13
2019-03-20T23:35:20.588Z,17.37
2019-03-20T23:37:54.254Z,16.83
2019-03-20T23:40:28.126Z,18.77
2019-03-20T23:43:03.170Z,19.90
2019-03-20T23:45:36.926Z,24.17
2019-03-20T23:48:29.917Z,21.70
2019-03-20T23:51:07.459Z,23.33
2019-03-20T23:53:45.789Z,25.67
2019-03-20T23:56:20.091Z,17.43
2019-03-20T23:58:53.676Z,53.73
